sensor_id;sensor_type;location;lat;lon;timestamp;pressure;altitude;pressure_sealevel;temperature;humidity
59055;BME280;44845;51.444;7.460;2023-03-12T00:02:14;99376.81;;;2.44;65.67
59055;BME280;44845;51.444;7.460;2023-03-12T00:04:39;99373.25;;;2.37;65.14
59055;BME280;44845;51.444;7.460;2023-03-12T00:07:05;99374.94;;;2.36;65.97
59055;BME280;44845;51.444;7.460;2023-03-12T00:09:34;99374.06;;;2.34;64.16
59055;BME280;44845;51.444;7.460;2023-03-12T00:12:00;99372.41;;;2.40;64.43
59055;BME280;44845;51.444;7.460;2023-03-12T00:14:26;99376.69;;;2.38;65.02
59055;BME280;44845;51.444;7.460;2023-03-12T00:16:51;99368.72;;;2.27;64.76
59055;BME280;44845;51.444;7.460;2023-03-12T00:19:16;99370.50;;;2.29;64.78
59055;BME280;44845;51.444;7.460;2023-03-12T00:21:42;99364.44;;;2.27;64.19
59055;BME280;44845;51.444;7.460;2023-03-12T00:24:07;99373.06;;;2.26;64.70
59055;BME280;44845;51.444;7.460;2023-03-12T00:26:32;99363.53;;;2.25;65.47
59055;BME280;44845;51.444;7.460;2023-03-12T00:28:58;99364.50;;;2.30;66.06
59055;BME280;44845;51.444;7.460;2023-03-12T00:31:29;99360.06;;;2.24;65.40
59055;BME280;44845;51.444;7.460;2023-03-12T00:33:57;99357.56;;;2.29;65.44
59055;BME280;44845;51.444;7.460;2023-03-12T00:36:25;99355.84;;;2.28;64.27
59055;BME280;44845;51.444;7.460;2023-03-12T00:38:51;99353.19;;;2.25;65.56
59055;BME280;44845;51.444;7.460;2023-03-12T00:41:17;99357.53;;;2.26;63.90
59055;BME280;44845;51.444;7.460;2023-03-12T00:43:47;99353.25;;;2.28;63.44
59055;BME280;44845;51.444;7.460;2023-03-12T00:46:13;99350.53;;;2.20;64.13
59055;BME280;44845;51.444;7.460;2023-03-12T00:48:39;99345.34;;;2.22;63.55
59055;BME280;44845;51.444;7.460;2023-03-12T00:51:04;99348.00;;;2.23;64.56
59055;BME280;44845;51.444;7.460;2023-03-12T00:53:30;99344.47;;;2.21;63.64
59055;BME280;44845;51.444;7.460;2023-03-12T00:55:55;99336.84;;;2.28;64.29
59055;BME280;44845;51.444;7.460;2023-03-12T00:58:20;99329.97;;;2.28;63.94
59055;BME280;44845;51.444;7.460;2023-03-12T01:00:48;99333.50;;;2.33;64.38
59055;BME280;44845;51.444;7.460;2023-03-12T01:03:13;99332.56;;;2.31;63.93
59055;BME280;44845;51.444;7.460;2023-03-12T01:05:39;99327.25;;;2.22;64.72
59055;BME280;44845;51.444;7.460;2023-03-12T01:08:08;99332.63;;;2.34;63.97
59055;BME280;44845;51.444;7.460;2023-03-12T01:10:35;99331.69;;;2.29;64.31
59055;BME280;44845;51.444;7.460;2023-03-12T01:13:00;99325.69;;;2.32;63.93
59055;BME280;44845;51.444;7.460;2023-03-12T01:15:27;99324.81;;;2.31;63.79
59055;BME280;44845;51.444;7.460;2023-03-12T01:17:53;99327.41;;;2.31;64.03
59055;BME280;44845;51.444;7.460;2023-03-12T01:20:18;99318.81;;;2.34;64.23
59055;BME280;44845;51.444;7.460;2023-03-12T01:22:43;99321.47;;;2.35;64.36
59055;BME280;44845;51.444;7.460;2023-03-12T01:25:10;99322.22;;;2.30;63.61
59055;BME280;44845;51.444;7.460;2023-03-12T01:27:36;99317.84;;;2.27;63.81
59055;BME280;44845;51.444;7.460;2023-03-12T01:30:02;99312.81;;;2.33;64.24
59055;BME280;44845;51.444;7.460;2023-03-12T01:32:27;99321.31;;;2.26;64.95
59055;BME280;44845;51.444;7.460;2023-03-12T01:34:52;99312.75;;;2.32;64.49
59055;BME280;44845;51.444;7.460;2023-03-12T01:37:18;99310.22;;;2.33;64.48
59055;BME280;44845;51.444;7.460;2023-03-12T01:39:43;99315.28;;;2.29;64.54
59055;BME280;44845;51.444;7.460;2023-03-12T01:42:09;99310.16;;;2.32;64.68
59055;BME280;44845;51.444;7.460;2023-03-12T01:47:16;99308.44;;;2.31;64.36
59055;BME280;44845;51.444;7.460;2023-03-12T01:49:42;99298.09;;;2.32;64.56
59055;BME280;44845;51.444;7.460;2023-03-12T01:52:21;99292.88;;;2.29;65.49
59055;BME280;44845;51.444;7.460;2023-03-12T01:57:28;99291.16;;;2.31;63.61
59055;BME280;44845;51.444;7.460;2023-03-12T01:59:57;99288.66;;;2.36;64.14
59055;BME280;44845;51.444;7.460;2023-03-12T02:02:24;99293.81;;;2.34;63.88
59055;BME280;44845;51.444;7.460;2023-03-12T02:05:06;99283.53;;;2.39;63.29
59055;BME280;44845;51.444;7.460;2023-03-12T02:07:34;99271.47;;;2.40;63.40
59055;BME280;44845;51.444;7.460;2023-03-12T02:09:59;99264.53;;;2.39;63.89
59055;BME280;44845;51.444;7.460;2023-03-12T02:12:25;99268.09;;;2.44;64.29
59055;BME280;44845;51.444;7.460;2023-03-12T02:14:50;99261.22;;;2.46;64.60
59055;BME280;44845;51.444;7.460;2023-03-12T02:17:16;99262.13;;;2.48;65.19
59055;BME280;44845;51.444;7.460;2023-03-12T02:19:49;99261.25;;;2.49;63.97
59055;BME280;44845;51.444;7.460;2023-03-12T02:22:16;99261.31;;;2.52;63.82
59055;BME280;44845;51.444;7.460;2023-03-12T02:24:52;99264.81;;;2.54;64.84
59055;BME280;44845;51.444;7.460;2023-03-12T02:27:20;99258.78;;;2.55;63.62
59055;BME280;44845;51.444;7.460;2023-03-12T02:29:47;99261.38;;;2.57;63.40
59055;BME280;44845;51.444;7.460;2023-03-12T02:32:22;99251.09;;;2.62;63.52
59055;BME280;44845;51.444;7.460;2023-03-12T02:34:48;99251.97;;;2.62;62.96
59055;BME280;44845;51.444;7.460;2023-03-12T02:37:15;99245.97;;;2.65;63.55
59055;BME280;44845;51.444;7.460;2023-03-12T02:39:41;99247.63;;;2.59;63.20
59055;BME280;44845;51.444;7.460;2023-03-12T02:42:08;99237.31;;;2.63;63.14
59055;BME280;44845;51.444;7.460;2023-03-12T02:44:33;99230.34;;;2.58;63.15
59055;BME280;44845;51.444;7.460;2023-03-12T02:47:02;99239.00;;;2.61;62.58
59055;BME280;44845;51.444;7.460;2023-03-12T02:49:30;99229.50;;;2.61;61.86
59055;BME280;44845;51.444;7.460;2023-03-12T02:51:57;99241.63;;;2.62;62.09
59055;BME280;44845;51.444;7.460;2023-03-12T02:54:23;99227.03;;;2.69;61.98
59055;BME280;44845;51.444;7.460;2023-03-12T02:56:49;99224.50;;;2.74;62.78
59055;BME280;44845;51.444;7.460;2023-03-12T02:59:15;99237.50;;;2.75;62.58
59055;BME280;44845;51.444;7.460;2023-03-12T03:01:42;99242.63;;;2.72;61.13
59055;BME280;44845;51.444;7.460;2023-03-12T03:04:09;99230.56;;;2.74;62.04
59055;BME280;44845;51.444;7.460;2023-03-12T03:06:37;99226.28;;;2.76;62.23
59055;BME280;44845;51.444;7.460;2023-03-12T03:09:03;99231.47;;;2.78;61.73
59055;BME280;44845;51.444;7.460;2023-03-12T03:11:29;99225.44;;;2.77;62.79
59055;BME280;44845;51.444;7.460;2023-03-12T03:13:55;99227.16;;;2.78;61.60
59055;BME280;44845;51.444;7.460;2023-03-12T03:16:20;99228.91;;;2.79;61.45
59055;BME280;44845;51.444;7.460;2023-03-12T03:18:46;99220.28;;;2.80;61.84
59055;BME280;44845;51.444;7.460;2023-03-12T03:21:12;99213.38;;;2.79;60.77
59055;BME280;44845;51.444;7.460;2023-03-12T03:23:41;99213.38;;;2.79;62.08
59055;BME280;44845;51.444;7.460;2023-03-12T03:26:07;99209.97;;;2.82;62.06
59055;BME280;44845;51.444;7.460;2023-03-12T03:28:32;99213.31;;;2.76;61.67
59055;BME280;44845;51.444;7.460;2023-03-12T03:30:58;99206.50;;;2.81;61.25
59055;BME280;44845;51.444;7.460;2023-03-12T03:33:26;99207.31;;;2.80;61.08
59055;BME280;44845;51.444;7.460;2023-03-12T03:35:51;99213.31;;;2.75;61.00
59055;BME280;44845;51.444;7.460;2023-03-12T03:38:19;99206.31;;;2.69;62.94
59055;BME280;44845;51.444;7.460;2023-03-12T03:40:45;99202.03;;;2.69;62.16
59055;BME280;44845;51.444;7.460;2023-03-12T03:43:10;99202.84;;;2.65;62.61
59055;BME280;44845;51.444;7.460;2023-03-12T03:45:35;99198.47;;;2.63;63.27
59055;BME280;44845;51.444;7.460;2023-03-12T03:48:01;99198.44;;;2.61;61.69
59055;BME280;44845;51.444;7.460;2023-03-12T03:50:26;99195.84;;;2.59;61.80
59055;BME280;44845;51.444;7.460;2023-03-12T03:52:51;99194.09;;;2.58;62.50
59055;BME280;44845;51.444;7.460;2023-03-12T03:55:17;99190.59;;;2.56;62.53
59055;BME280;44845;51.444;7.460;2023-03-12T03:57:42;99192.31;;;2.54;62.11
59055;BME280;44845;51.444;7.460;2023-03-12T04:00:08;99184.53;;;2.53;62.89
59055;BME280;44845;51.444;7.460;2023-03-12T04:02:37;99187.97;;;2.52;63.16
59055;BME280;44845;51.444;7.460;2023-03-12T04:05:03;99191.38;;;2.49;63.81
59055;BME280;44845;51.444;7.460;2023-03-12T04:07:28;99181.91;;;2.51;63.56
59055;BME280;44845;51.444;7.460;2023-03-12T04:09:54;99181.00;;;2.47;63.17
59055;BME280;44845;51.444;7.460;2023-03-12T04:12:20;99183.59;;;2.49;63.00
59055;BME280;44845;51.444;7.460;2023-03-12T04:14:45;99181.06;;;2.54;63.46
59055;BME280;44845;51.444;7.460;2023-03-12T04:17:11;99179.41;;;2.57;63.58
59055;BME280;44845;51.444;7.460;2023-03-12T04:19:36;99178.59;;;2.62;63.88
59055;BME280;44845;51.444;7.460;2023-03-12T04:22:01;99182.03;;;2.61;63.58
59055;BME280;44845;51.444;7.460;2023-03-12T04:24:27;99186.41;;;2.65;63.97
59055;BME280;44845;51.444;7.460;2023-03-12T04:26:52;99182.97;;;2.66;63.67
59055;BME280;44845;51.444;7.460;2023-03-12T04:29:18;99171.78;;;2.67;63.28
59055;BME280;44845;51.444;7.460;2023-03-12T04:31:44;99176.97;;;2.68;63.74
59055;BME280;44845;51.444;7.460;2023-03-12T04:34:10;99168.25;;;2.62;63.98
59055;BME280;44845;51.444;7.460;2023-03-12T04:36:35;99164.84;;;2.66;63.87
59055;BME280;44845;51.444;7.460;2023-03-12T04:39:01;99162.31;;;2.69;62.94
59055;BME280;44845;51.444;7.460;2023-03-12T04:41:26;99160.59;;;2.69;63.64
59055;BME280;44845;51.444;7.460;2023-03-12T04:43:52;99154.53;;;2.69;62.65
59055;BME280;44845;51.444;7.460;2023-03-12T04:46:17;99161.47;;;2.73;63.34
59055;BME280;44845;51.444;7.460;2023-03-12T04:48:43;99166.72;;;2.76;63.43
59055;BME280;44845;51.444;7.460;2023-03-12T04:51:08;99165.88;;;2.77;62.48
59055;BME280;44845;51.444;7.460;2023-03-12T04:53:34;99165.94;;;2.85;62.27
59055;BME280;44845;51.444;7.460;2023-03-12T04:55:59;99155.56;;;2.84;63.01
59055;BME280;44845;51.444;7.460;2023-03-12T04:58:24;99152.94;;;2.80;62.90
59055;BME280;44845;51.444;7.460;2023-03-12T05:00:50;99148.69;;;2.83;63.06
59055;BME280;44845;51.444;7.460;2023-03-12T05:03:16;99146.16;;;2.89;62.51
59055;BME280;44845;51.444;7.460;2023-03-12T05:05:42;99142.72;;;2.90;62.88
59055;BME280;44845;51.444;7.460;2023-03-12T05:08:07;99145.31;;;2.90;63.13
59055;BME280;44845;51.444;7.460;2023-03-12T05:10:32;99141.84;;;2.91;62.91
59055;BME280;44845;51.444;7.460;2023-03-12T05:12:58;99149.66;;;2.94;62.24
59055;BME280;44845;51.444;7.460;2023-03-12T05:15:24;99144.47;;;2.94;62.00
59055;BME280;44845;51.444;7.460;2023-03-12T05:17:49;99149.72;;;2.97;61.68
59055;BME280;44845;51.444;7.460;2023-03-12T05:20:15;99141.06;;;2.98;62.08
59055;BME280;44845;51.444;7.460;2023-03-12T05:22:42;99128.94;;;2.96;62.48
59055;BME280;44845;51.444;7.460;2023-03-12T05:25:08;99116.88;;;2.96;62.95
59055;BME280;44845;51.444;7.460;2023-03-12T05:27:36;99118.63;;;2.99;62.67
59055;BME280;44845;51.444;7.460;2023-03-12T05:30:03;99111.75;;;3.02;62.73
59055;BME280;44845;51.444;7.460;2023-03-12T05:32:28;99115.22;;;3.01;61.92
59055;BME280;44845;51.444;7.460;2023-03-12T05:34:54;99108.25;;;2.97;62.48
59055;BME280;44845;51.444;7.460;2023-03-12T05:37:19;99099.72;;;3.04;61.94
59055;BME280;44845;51.444;7.460;2023-03-12T05:39:44;99100.53;;;3.03;61.88
59055;BME280;44845;51.444;7.460;2023-03-12T05:42:13;99096.28;;;3.07;62.56
59055;BME280;44845;51.444;7.460;2023-03-12T05:44:39;99089.34;;;3.08;61.96
59055;BME280;44845;51.444;7.460;2023-03-12T05:47:05;99079.88;;;3.10;62.81
59055;BME280;44845;51.444;7.460;2023-03-12T05:49:31;99089.38;;;3.09;61.95
59055;BME280;44845;51.444;7.460;2023-03-12T05:51:56;99095.44;;;3.13;62.57
59055;BME280;44845;51.444;7.460;2023-03-12T05:54:22;99093.69;;;3.10;62.34
59055;BME280;44845;51.444;7.460;2023-03-12T05:56:47;99077.34;;;3.18;61.53
59055;BME280;44845;51.444;7.460;2023-03-12T05:59:12;99076.47;;;3.14;62.37
59055;BME280;44845;51.444;7.460;2023-03-12T06:01:38;99078.22;;;3.17;61.86
59055;BME280;44845;51.444;7.460;2023-03-12T06:04:03;99084.28;;;3.19;62.38
59055;BME280;44845;51.444;7.460;2023-03-12T06:06:31;99077.41;;;3.19;61.34
59055;BME280;44845;51.444;7.460;2023-03-12T06:08:56;99073.13;;;3.24;61.63
59055;BME280;44845;51.444;7.460;2023-03-12T06:11:22;99065.28;;;3.20;61.69
59055;BME280;44845;51.444;7.460;2023-03-12T06:13:47;99058.38;;;3.20;61.92
59055;BME280;44845;51.444;7.460;2023-03-12T06:16:24;99056.72;;;3.25;62.35
59055;BME280;44845;51.444;7.460;2023-03-12T06:18:57;99049.84;;;3.31;61.15
59055;BME280;44845;51.444;7.460;2023-03-12T06:21:25;99037.72;;;3.26;61.86
59055;BME280;44845;51.444;7.460;2023-03-12T06:23:51;99041.19;;;3.29;60.65
59055;BME280;44845;51.444;7.460;2023-03-12T06:26:18;99034.28;;;3.29;60.57
59055;BME280;44845;51.444;7.460;2023-03-12T06:28:45;99032.63;;;3.36;61.31
59055;BME280;44845;51.444;7.460;2023-03-12T06:31:10;99034.28;;;3.31;60.44
59055;BME280;44845;51.444;7.460;2023-03-12T06:33:36;99020.47;;;3.30;61.14
59055;BME280;44845;51.444;7.460;2023-03-12T06:36:03;99014.44;;;3.34;60.71
59055;BME280;44845;51.444;7.460;2023-03-12T06:38:29;98999.78;;;3.38;62.20
59055;BME280;44845;51.444;7.460;2023-03-12T06:40:59;99006.69;;;3.36;62.16
59055;BME280;44845;51.444;7.460;2023-03-12T06:43:27;99004.94;;;3.35;61.06
59055;BME280;44845;51.444;7.460;2023-03-12T06:45:53;99013.66;;;3.43;61.64
59055;BME280;44845;51.444;7.460;2023-03-12T06:48:19;99013.69;;;3.46;61.47
59055;BME280;44845;51.444;7.460;2023-03-12T06:50:44;99011.97;;;3.48;62.29
59055;BME280;44845;51.444;7.460;2023-03-12T06:53:10;99020.59;;;3.47;61.86
59055;BME280;44845;51.444;7.460;2023-03-12T06:55:35;99024.06;;;3.48;62.65
59055;BME280;44845;51.444;7.460;2023-03-12T06:58:01;99024.97;;;3.53;62.72
59055;BME280;44845;51.444;7.460;2023-03-12T07:00:28;99034.50;;;3.59;62.87
59055;BME280;44845;51.444;7.460;2023-03-12T07:02:54;99030.22;;;3.63;63.23
59055;BME280;44845;51.444;7.460;2023-03-12T07:05:19;99025.84;;;3.57;63.15
59055;BME280;44845;51.444;7.460;2023-03-12T07:07:45;99020.69;;;3.60;63.67
59055;BME280;44845;51.444;7.460;2023-03-12T07:10:10;99016.38;;;3.62;64.56
59055;BME280;44845;51.444;7.460;2023-03-12T07:12:36;99017.22;;;3.58;64.37
59055;BME280;44845;51.444;7.460;2023-03-12T07:15:01;99009.50;;;3.66;64.19
59055;BME280;44845;51.444;7.460;2023-03-12T07:17:27;99012.16;;;3.77;65.42
59055;BME280;44845;51.444;7.460;2023-03-12T07:19:52;99018.22;;;3.79;65.70
59055;BME280;44845;51.444;7.460;2023-03-12T07:22:18;99014.78;;;3.80;65.58
59055;BME280;44845;51.444;7.460;2023-03-12T07:24:43;99013.03;;;3.79;65.61
59055;BME280;44845;51.444;7.460;2023-03-12T07:27:08;99009.56;;;3.77;65.62
59055;BME280;44845;51.444;7.460;2023-03-12T07:29:34;99009.63;;;3.85;66.22
59055;BME280;44845;51.444;7.460;2023-03-12T07:31:59;99015.56;;;3.69;66.51
59055;BME280;44845;51.444;7.460;2023-03-12T07:34:25;99013.88;;;3.75;67.26
59055;BME280;44845;51.444;7.460;2023-03-12T07:36:50;99020.00;;;3.83;66.97
59055;BME280;44845;51.444;7.460;2023-03-12T07:39:15;99020.84;;;3.82;67.75
59055;BME280;44845;51.444;7.460;2023-03-12T07:41:41;99017.41;;;3.83;67.94
59055;BME280;44845;51.444;7.460;2023-03-12T07:44:06;99013.06;;;3.87;67.93
59055;BME280;44845;51.444;7.460;2023-03-12T07:46:32;99011.38;;;3.92;68.28
59055;BME280;44845;51.444;7.460;2023-03-12T07:48:57;99007.03;;;3.89;68.46
59055;BME280;44845;51.444;7.460;2023-03-12T07:51:23;99003.56;;;3.84;69.34
59055;BME280;44845;51.444;7.460;2023-03-12T07:53:48;99005.28;;;3.82;69.20
59055;BME280;44845;51.444;7.460;2023-03-12T07:56:14;98997.50;;;3.82;69.94
59055;BME280;44845;51.444;7.460;2023-03-12T07:58:39;98989.75;;;3.85;70.76
59055;BME280;44845;51.444;7.460;2023-03-12T08:01:04;98986.34;;;3.96;71.16
59055;BME280;44845;51.444;7.460;2023-03-12T08:03:31;98982.88;;;3.97;71.29
59055;BME280;44845;51.444;7.460;2023-03-12T08:05:58;99001.03;;;3.95;71.58
59055;BME280;44845;51.444;7.460;2023-03-12T08:08:24;99003.66;;;4.00;71.63
59055;BME280;44845;51.444;7.460;2023-03-12T08:10:50;98998.47;;;4.00;71.61
59055;BME280;44845;51.444;7.460;2023-03-12T08:13:15;98997.56;;;3.96;72.71
59055;BME280;44845;51.444;7.460;2023-03-12T08:15:42;98997.56;;;3.96;72.76
59055;BME280;44845;51.444;7.460;2023-03-12T08:18:07;98988.09;;;4.00;72.92
59055;BME280;44845;51.444;7.460;2023-03-12T08:20:33;98996.72;;;3.99;73.21
59055;BME280;44845;51.444;7.460;2023-03-12T08:22:58;98988.97;;;4.00;74.02
59055;BME280;44845;51.444;7.460;2023-03-12T08:25:23;98991.47;;;3.91;74.49
59055;BME280;44845;51.444;7.460;2023-03-12T08:27:49;98987.19;;;4.01;74.11
59055;BME280;44845;51.444;7.460;2023-03-12T08:30:14;98989.75;;;3.91;74.96
59055;BME280;44845;51.444;7.460;2023-03-12T08:32:40;98985.53;;;4.08;74.75
59055;BME280;44845;51.444;7.460;2023-03-12T08:35:06;98993.34;;;4.19;74.82
59055;BME280;44845;51.444;7.460;2023-03-12T08:37:31;98994.22;;;4.18;74.83
59055;BME280;44845;51.444;7.460;2023-03-12T08:39:57;98991.63;;;4.25;74.75
59055;BME280;44845;51.444;7.460;2023-03-12T08:42:22;99002.06;;;4.30;74.87
59055;BME280;44845;51.444;7.460;2023-03-12T08:44:48;98995.16;;;4.37;74.99
59055;BME280;44845;51.444;7.460;2023-03-12T08:47:13;98987.41;;;4.42;73.57
59055;BME280;44845;51.444;7.460;2023-03-12T08:49:38;98978.75;;;4.49;74.27
59055;BME280;44845;51.444;7.460;2023-03-12T08:52:04;98972.69;;;4.37;74.51
59055;BME280;44845;51.444;7.460;2023-03-12T08:54:29;98978.78;;;4.54;74.64
59055;BME280;44845;51.444;7.460;2023-03-12T08:56:54;98975.34;;;4.69;73.81
59055;BME280;44845;51.444;7.460;2023-03-12T08:59:20;98982.28;;;4.79;74.65
59055;BME280;44845;51.444;7.460;2023-03-12T09:01:46;98966.69;;;4.78;74.37
59055;BME280;44845;51.444;7.460;2023-03-12T09:04:12;98977.94;;;4.75;74.58
59055;BME280;44845;51.444;7.460;2023-03-12T09:06:37;98975.38;;;4.91;74.23
59055;BME280;44845;51.444;7.460;2023-03-12T09:09:03;98972.75;;;4.84;73.71
59055;BME280;44845;51.444;7.460;2023-03-12T09:11:30;98968.44;;;4.88;73.78
59055;BME280;44845;51.444;7.460;2023-03-12T09:13:57;98959.81;;;4.94;73.61
59055;BME280;44845;51.444;7.460;2023-03-12T09:16:22;98954.59;;;4.92;73.71
59055;BME280;44845;51.444;7.460;2023-03-12T09:18:47;98942.47;;;5.07;73.66
59055;BME280;44845;51.444;7.460;2023-03-12T09:21:13;98952.88;;;5.13;74.22
59055;BME280;44845;51.444;7.460;2023-03-12T09:23:38;98955.47;;;5.24;74.27
59055;BME280;44845;51.444;7.460;2023-03-12T09:26:08;98952.88;;;5.26;73.89
59055;BME280;44845;51.444;7.460;2023-03-12T09:28:34;98949.38;;;5.28;74.78
59055;BME280;44845;51.444;7.460;2023-03-12T09:31:00;98944.19;;;5.33;74.59
59055;BME280;44845;51.444;7.460;2023-03-12T09:33:26;98939.84;;;5.37;75.44
59055;BME280;44845;51.444;7.460;2023-03-12T09:35:58;98948.53;;;5.37;75.19
59055;BME280;44845;51.444;7.460;2023-03-12T09:38:24;98948.50;;;5.39;74.90
59055;BME280;44845;51.444;7.460;2023-03-12T09:40:49;98946.78;;;5.28;74.89
59055;BME280;44845;51.444;7.460;2023-03-12T09:45:50;98952.84;;;5.41;74.57
59055;BME280;44845;51.444;7.460;2023-03-12T09:48:22;98943.34;;;5.36;74.87
59055;BME280;44845;51.444;7.460;2023-03-12T09:50:51;98942.44;;;5.37;74.73
59055;BME280;44845;51.444;7.460;2023-03-12T09:53:27;98939.84;;;5.52;74.57
59055;BME280;44845;51.444;7.460;2023-03-12T09:55:58;98941.56;;;5.50;74.72
59055;BME280;44845;51.444;7.460;2023-03-12T09:58:28;98966.69;;;5.53;74.98
59055;BME280;44845;51.444;7.460;2023-03-12T10:01:28;98955.41;;;5.62;74.82
59055;BME280;44845;51.444;7.460;2023-03-12T10:04:02;98969.31;;;5.55;74.86
59055;BME280;44845;51.444;7.460;2023-03-12T10:06:43;98962.38;;;5.57;75.17
59055;BME280;44845;51.444;7.460;2023-03-12T10:09:18;98964.09;;;5.55;75.21
59055;BME280;44845;51.444;7.460;2023-03-12T10:17:51;98955.41;;;5.62;76.09
59055;BME280;44845;51.444;7.460;2023-03-12T10:20:52;98955.41;;;5.71;77.02
59055;BME280;44845;51.444;7.460;2023-03-12T10:26:28;98981.44;;;5.65;77.95
59055;BME280;44845;51.444;7.460;2023-03-12T10:29:20;98983.16;;;5.69;78.41
59055;BME280;44845;51.444;7.460;2023-03-12T10:34:20;98977.97;;;5.72;78.73
59055;BME280;44845;51.444;7.460;2023-03-12T10:36:47;98981.41;;;5.76;78.79
59055;BME280;44845;51.444;7.460;2023-03-12T10:39:15;98971.84;;;5.83;79.19
59055;BME280;44845;51.444;7.460;2023-03-12T10:41:42;98976.19;;;5.82;79.44
59055;BME280;44845;51.444;7.460;2023-03-12T10:44:16;98970.97;;;5.84;79.29
59055;BME280;44845;51.444;7.460;2023-03-12T10:49:35;98979.63;;;6.02;79.67
59055;BME280;44845;51.444;7.460;2023-03-12T10:54:38;98979.59;;;6.08;79.68
59055;BME280;44845;51.444;7.460;2023-03-12T10:57:06;98986.56;;;6.09;79.49
59055;BME280;44845;51.444;7.460;2023-03-12T10:59:34;98983.06;;;5.97;79.73
59055;BME280;44845;51.444;7.460;2023-03-12T11:02:01;98993.47;;;6.04;79.58
59055;BME280;44845;51.444;7.460;2023-03-12T11:04:30;98994.38;;;6.00;79.85
59055;BME280;44845;51.444;7.460;2023-03-12T11:09:36;98996.94;;;6.18;79.98
59055;BME280;44845;51.444;7.460;2023-03-12T11:12:01;98998.66;;;6.21;79.98
59055;BME280;44845;51.444;7.460;2023-03-12T11:14:28;98996.91;;;6.25;80.01
59055;BME280;44845;51.444;7.460;2023-03-12T11:16:55;98988.22;;;6.29;80.04
59055;BME280;44845;51.444;7.460;2023-03-12T11:19:31;98996.91;;;6.31;80.06
59055;BME280;44845;51.444;7.460;2023-03-12T11:22:02;99001.22;;;6.35;80.22
59055;BME280;44845;51.444;7.460;2023-03-12T11:24:28;99005.56;;;6.30;80.02
59055;BME280;44845;51.444;7.460;2023-03-12T11:29:42;98989.94;;;6.33;80.43
59055;BME280;44845;51.444;7.460;2023-03-12T11:32:30;98992.53;;;6.36;80.80
59055;BME280;44845;51.444;7.460;2023-03-12T11:34:57;98984.69;;;6.42;80.68
59055;BME280;44845;51.444;7.460;2023-03-12T11:40:25;98990.75;;;6.45;81.35
59055;BME280;44845;51.444;7.460;2023-03-12T11:43:03;98993.34;;;6.45;81.49
59055;BME280;44845;51.444;7.460;2023-03-12T11:51:36;98995.06;;;6.52;81.92
59055;BME280;44845;51.444;7.460;2023-03-12T11:56:48;98992.38;;;6.71;82.03
59055;BME280;44845;51.444;7.460;2023-03-12T12:12:47;98980.91;;;6.91;82.01
59055;BME280;44845;51.444;7.460;2023-03-12T12:15:27;98982.66;;;6.89;81.87
59055;BME280;44845;51.444;7.460;2023-03-12T12:20:55;98982.59;;;7.01;82.11
59055;BME280;44845;51.444;7.460;2023-03-12T12:23:44;98979.16;;;6.96;82.26
59055;BME280;44845;51.444;7.460;2023-03-12T12:26:31;98970.41;;;7.03;82.33
59055;BME280;44845;51.444;7.460;2023-03-12T12:32:00;98987.81;;;7.03;82.39
59055;BME280;44845;51.444;7.460;2023-03-12T12:39:31;98985.13;;;7.12;82.97
59055;BME280;44845;51.444;7.460;2023-03-12T12:42:03;98993.81;;;7.14;83.22
59055;BME280;44845;51.444;7.460;2023-03-12T12:44:34;98978.13;;;7.16;83.36
59055;BME280;44845;51.444;7.460;2023-03-12T12:47:03;98983.38;;;7.17;83.27
59055;BME280;44845;51.444;7.460;2023-03-12T12:49:42;98980.81;;;7.09;84.47
59055;BME280;44845;51.444;7.460;2023-03-12T12:52:12;98969.44;;;7.17;84.04
59055;BME280;44845;51.444;7.460;2023-03-12T12:57:14;98965.88;;;7.29;83.71
59055;BME280;44845;51.444;7.460;2023-03-12T12:59:44;98960.66;;;7.29;83.79
59055;BME280;44845;51.444;7.460;2023-03-12T13:02:19;98959.75;;;7.31;83.97
59055;BME280;44845;51.444;7.460;2023-03-12T13:04:45;98962.41;;;7.25;84.80
59055;BME280;44845;51.444;7.460;2023-03-12T13:09:43;98951.00;;;7.39;84.20
59055;BME280;44845;51.444;7.460;2023-03-12T13:14:47;98954.38;;;7.49;84.46
59055;BME280;44845;51.444;7.460;2023-03-12T13:17:23;98957.91;;;7.43;85.23
59055;BME280;44845;51.444;7.460;2023-03-12T13:19:51;98960.44;;;7.54;84.62
59055;BME280;44845;51.444;7.460;2023-03-12T13:22:40;98956.00;;;7.61;84.95
59055;BME280;44845;51.444;7.460;2023-03-12T13:28:00;98943.75;;;7.69;84.84
59055;BME280;44845;51.444;7.460;2023-03-12T13:43:09;98913.69;;;8.11;84.29
59055;BME280;44845;51.444;7.460;2023-03-12T13:48:18;98905.72;;;8.19;83.87
59055;BME280;44845;51.444;7.460;2023-03-12T13:50:51;98904.75;;;8.28;83.85
59055;BME280;44845;51.444;7.460;2023-03-12T13:53:26;98898.50;;;8.38;83.82
59055;BME280;44845;51.444;7.460;2023-03-12T13:58:29;98912.22;;;8.54;83.92
59055;BME280;44845;51.444;7.460;2023-03-12T14:01:03;98905.22;;;8.60;83.77
59055;BME280;44845;51.444;7.460;2023-03-12T14:03:32;98901.63;;;8.65;83.60
59055;BME280;44845;51.444;7.460;2023-03-12T14:06:09;98885.88;;;8.72;83.61
59055;BME280;44845;51.444;7.460;2023-03-12T14:16:37;98910.25;;;8.72;82.98
59055;BME280;44845;51.444;7.460;2023-03-12T14:19:05;98907.66;;;8.71;83.15
59055;BME280;44845;51.444;7.460;2023-03-12T14:21:37;98887.66;;;8.70;82.80
59055;BME280;44845;51.444;7.460;2023-03-12T14:24:05;98893.75;;;8.69;82.90
59055;BME280;44845;51.444;7.460;2023-03-12T14:26:34;98889.38;;;8.69;83.10
59055;BME280;44845;51.444;7.460;2023-03-12T14:29:06;98897.19;;;8.71;82.81
59055;BME280;44845;51.444;7.460;2023-03-12T14:31:34;98893.75;;;8.69;82.80
59055;BME280;44845;51.444;7.460;2023-03-12T14:34:46;98901.63;;;8.65;83.19
59055;BME280;44845;51.444;7.460;2023-03-12T14:37:21;98897.31;;;8.63;83.07
59055;BME280;44845;51.444;7.460;2023-03-12T14:40:34;98899.13;;;8.59;83.62
59055;BME280;44845;51.444;7.460;2023-03-12T14:43:00;98907.91;;;8.52;83.79
59055;BME280;44845;51.444;7.460;2023-03-12T14:45:26;98911.31;;;8.57;83.82
59055;BME280;44845;51.444;7.460;2023-03-12T14:47:56;98902.53;;;8.63;83.57
59055;BME280;44845;51.444;7.460;2023-03-12T14:50:29;98902.50;;;8.67;83.50
59055;BME280;44845;51.444;7.460;2023-03-12T14:53:13;98909.47;;;8.65;83.47
59055;BME280;44845;51.444;7.460;2023-03-12T14:55:41;98913.78;;;8.68;83.33
59055;BME280;44845;51.444;7.460;2023-03-12T14:58:18;98916.41;;;8.70;83.61